Athens, VT

7:24 AM EDT on September 01, 2014 (GMT -0400)
Goldthwaite Road | Change Station
CLOSE
Current Station
Personal Weather Station
Location: Chester, VT
Elevation: 1227 ft
Nearby Weather Stations

Elev 1227 ft 43.27 °N, 72.65 °W | Updated 1 second ago

Overcast
Overcast
70.0 °F
Feels Like 70.0 °F
N
0.0
Wind Variable Wind from WNW
Gusts 0.0 mph

Today
High -- | Low -- °F
--% Chance of Precip.
Yesterday
High -- | Low -- °F
Precip. -- in
6:14 AM 7:25 PM
Waxing Crescent, 40% visible
Pressure 30.00 in
Visibility 0.2 miles
Clouds
Dew Point 67 °F
Humidity 91%
Rainfall 0.00 in
Snow Depth Not available.
UV Not available.
Pollen 5.50 out of 12
PM2.5 Good
Flu Activity Not available.
METAR KVSF 011054Z AUTO 00000KT M1/4SM FG VV002 18/18 A3001 RMK AO2 SLP159 T01780178

More Conditions Fewer Conditions

Pressure 30.00 in
Visibility 0.2 miles
Clouds
Dew Point 67 °F
Humidity 91%
Rainfall 0.00 in
Snow Depth Not available.
UV Not available.
Pollen 5.50 out of 12
PM2.5 Good
Flu Activity Not available.
METAR KVSF 011054Z AUTO 00000KT M1/4SM FG VV002 18/18 A3001 RMK AO2 SLP159 T01780178

More Conditions Fewer Conditions

10-Day Weather Forecast

Almanac

Astronomy

Sep. 01, 2014 Rise Set
Actual Time 6:14 AM EDT 7:25 PM EDT
Civil Twilight 5:45 AM EDT 7:54 PM EDT
Nautical Twilight 5:09 AM EDT 8:29 PM EDT
Astronomical Twilight 4:32 AM EDT 9:06 PM EDT
Moon 1:08 PM EDT 11:12 PM EDT
Length of Visible Light 14h 09m
Length of Day
13h 11m
Tomorrow will be 2m 51s shorter.
Waxing Crescent, 40% of the Moon is Illuminated
Today
Waxing Crescent
Sep 2
First Quarter
Sep 8
Full
Sep 15
Last Quarter
Sep 24
New

Today's Extremes

State Highs State Lows

Community

WunderPhotos

Upload Photos

1,749,188 photos uploaded!

Nearby

Air Quality

  Air Quality AQ Index Pollutant
Yesterday Good
PM2.5
Yesterday Good
OZONE
Current Good
PM2.5
Monday Moderate
PM2.5
Tuesday Moderate
PM2.5

Snow Depth

Station Depth Elevation
No new snow has been reported.

Earthquake Activity

City Distance Mag. Time & Date
No recent earthquake activity has been reported nearby.
Minimum magnitude displayed is 2.5.

Coastal Water Temperatures

Place Temperature
No Stations Reporting

Nearby Weather Stations